sensor_id;sensor_type;location;lat;lon;timestamp;temperature;humidity
9544;DHT22;30418;51.45933468;7.33152330;2023-08-01T00:01:08;20.60;77.90
9544;DHT22;30418;51.45933468;7.33152330;2023-08-01T00:03:37;20.60;77.90
9544;DHT22;30418;51.45933468;7.33152330;2023-08-01T00:06:06;20.60;77.90
9544;DHT22;30418;51.45933468;7.33152330;2023-08-01T00:08:34;20.60;78.00
9544;DHT22;30418;51.45933468;7.33152330;2023-08-01T00:11:03;20.60;78.00
9544;DHT22;30418;51.45933468;7.33152330;2023-08-01T00:13:33;20.60;78.10
9544;DHT22;30418;51.45933468;7.33152330;2023-08-01T00:16:02;20.60;78.20
9544;DHT22;30418;51.45933468;7.33152330;2023-08-01T00:18:34;20.60;78.20
9544;DHT22;30418;51.45933468;7.33152330;2023-08-01T00:21:03;20.60;78.10
9544;DHT22;30418;51.45933468;7.33152330;2023-08-01T00:23:36;20.60;78.20
9544;DHT22;30418;51.45933468;7.33152330;2023-08-01T00:26:05;20.50;78.10
9544;DHT22;30418;51.45933468;7.33152330;2023-08-01T00:28:35;20.60;78.20
9544;DHT22;30418;51.45933468;7.33152330;2023-08-01T00:31:05;20.50;78.20
9544;DHT22;30418;51.45933468;7.33152330;2023-08-01T00:33:34;20.50;78.30
9544;DHT22;30418;51.45933468;7.33152330;2023-08-01T00:36:02;20.50;78.30
9544;DHT22;30418;51.45933468;7.33152330;2023-08-01T00:38:36;20.50;78.40
9544;DHT22;30418;51.45933468;7.33152330;2023-08-01T00:41:04;20.50;78.40
9544;DHT22;30418;51.45933468;7.33152330;2023-08-01T00:43:34;20.50;78.40
9544;DHT22;30418;51.45933468;7.33152330;2023-08-01T00:46:04;20.50;78.20
9544;DHT22;30418;51.45933468;7.33152330;2023-08-01T00:48:34;20.50;78.00
9544;DHT22;30418;51.45933468;7.33152330;2023-08-01T00:51:04;20.50;77.80
9544;DHT22;30418;51.45933468;7.33152330;2023-08-01T00:53:34;20.50;77.80
9544;DHT22;30418;51.45933468;7.33152330;2023-08-01T00:56:03;20.40;77.70
9544;DHT22;30418;51.45933468;7.33152330;2023-08-01T00:58:32;20.40;77.70
9544;DHT22;30418;51.45933468;7.33152330;2023-08-01T01:01:02;20.40;77.70
9544;DHT22;30418;51.45933468;7.33152330;2023-08-01T01:03:31;20.40;77.70
9544;DHT22;30418;51.45933468;7.33152330;2023-08-01T01:06:04;20.40;77.70
9544;DHT22;30418;51.45933468;7.33152330;2023-08-01T01:08:37;20.30;77.70
9544;DHT22;30418;51.45933468;7.33152330;2023-08-01T01:11:05;20.30;77.80
9544;DHT22;30418;51.45933468;7.33152330;2023-08-01T01:13:34;20.30;77.80
9544;DHT22;30418;51.45933468;7.33152330;2023-08-01T01:16:04;20.20;77.50
9544;DHT22;30418;51.45933468;7.33152330;2023-08-01T01:18:33;20.20;77.60
9544;DHT22;30418;51.45933468;7.33152330;2023-08-01T01:21:03;20.20;77.50
9544;DHT22;30418;51.45933468;7.33152330;2023-08-01T01:23:33;20.20;77.70
9544;DHT22;30418;51.45933468;7.33152330;2023-08-01T01:26:02;20.20;77.70
9544;DHT22;30418;51.45933468;7.33152330;2023-08-01T01:28:33;20.20;77.70
9544;DHT22;30418;51.45933468;7.33152330;2023-08-01T01:31:02;20.20;77.80
9544;DHT22;30418;51.45933468;7.33152330;2023-08-01T01:33:30;20.20;77.80
9544;DHT22;30418;51.45933468;7.33152330;2023-08-01T01:36:00;20.10;77.80
9544;DHT22;30418;51.45933468;7.33152330;2023-08-01T01:38:31;20.20;77.80
9544;DHT22;30418;51.45933468;7.33152330;2023-08-01T01:40:59;20.20;77.80
9544;DHT22;30418;51.45933468;7.33152330;2023-08-01T01:43:27;20.20;77.90
9544;DHT22;30418;51.45933468;7.33152330;2023-08-01T01:45:56;20.10;77.80
9544;DHT22;30418;51.45933468;7.33152330;2023-08-01T01:48:25;20.20;77.90
9544;DHT22;30418;51.45933468;7.33152330;2023-08-01T01:50:53;20.20;77.90
9544;DHT22;30418;51.45933468;7.33152330;2023-08-01T01:53:22;20.20;78.00
9544;DHT22;30418;51.45933468;7.33152330;2023-08-01T01:55:53;20.20;78.10
9544;DHT22;30418;51.45933468;7.33152330;2023-08-01T01:58:21;20.20;78.10
9544;DHT22;30418;51.45933468;7.33152330;2023-08-01T02:00:50;20.20;78.00
9544;DHT22;30418;51.45933468;7.33152330;2023-08-01T02:03:18;20.20;78.00
9544;DHT22;30418;51.45933468;7.33152330;2023-08-01T02:05:47;20.20;78.00
9544;DHT22;30418;51.45933468;7.33152330;2023-08-01T02:08:18;20.20;78.00
9544;DHT22;30418;51.45933468;7.33152330;2023-08-01T02:10:47;20.20;77.90
9544;DHT22;30418;51.45933468;7.33152330;2023-08-01T02:13:17;20.20;77.90
9544;DHT22;30418;51.45933468;7.33152330;2023-08-01T02:15:46;20.20;77.80
9544;DHT22;30418;51.45933468;7.33152330;2023-08-01T02:18:14;20.20;77.60
9544;DHT22;30418;51.45933468;7.33152330;2023-08-01T02:20:43;20.20;77.30
9544;DHT22;30418;51.45933468;7.33152330;2023-08-01T02:23:11;20.20;77.10
9544;DHT22;30418;51.45933468;7.33152330;2023-08-01T02:25:43;20.20;77.00
9544;DHT22;30418;51.45933468;7.33152330;2023-08-01T02:28:11;20.20;77.10
9544;DHT22;30418;51.45933468;7.33152330;2023-08-01T02:30:42;20.10;76.90
9544;DHT22;30418;51.45933468;7.33152330;2023-08-01T02:33:10;20.10;76.80
9544;DHT22;30418;51.45933468;7.33152330;2023-08-01T02:35:39;20.10;76.60
9544;DHT22;30418;51.45933468;7.33152330;2023-08-01T02:38:07;20.00;76.50
9544;DHT22;30418;51.45933468;7.33152330;2023-08-01T02:40:36;20.00;76.60
9544;DHT22;30418;51.45933468;7.33152330;2023-08-01T02:43:04;19.90;76.50
9544;DHT22;30418;51.45933468;7.33152330;2023-08-01T02:45:33;19.90;76.50
9544;DHT22;30418;51.45933468;7.33152330;2023-08-01T02:48:03;19.90;76.60
9544;DHT22;30418;51.45933468;7.33152330;2023-08-01T02:50:32;19.90;76.70
9544;DHT22;30418;51.45933468;7.33152330;2023-08-01T02:53:00;19.90;76.60
9544;DHT22;30418;51.45933468;7.33152330;2023-08-01T02:55:29;19.80;76.60
9544;DHT22;30418;51.45933468;7.33152330;2023-08-01T02:57:58;19.80;76.60
9544;DHT22;30418;51.45933468;7.33152330;2023-08-01T03:00:26;19.80;76.60
9544;DHT22;30418;51.45933468;7.33152330;2023-08-01T03:02:55;19.80;76.60
9544;DHT22;30418;51.45933468;7.33152330;2023-08-01T03:05:25;19.80;76.60
9544;DHT22;30418;51.45933468;7.33152330;2023-08-01T03:07:54;19.80;76.60
9544;DHT22;30418;51.45933468;7.33152330;2023-08-01T03:10:22;19.70;77.30
9544;DHT22;30418;51.45933468;7.33152330;2023-08-01T03:12:56;19.70;76.50
9544;DHT22;30418;51.45933468;7.33152330;2023-08-01T03:15:25;19.70;76.60
9544;DHT22;30418;51.45933468;7.33152330;2023-08-01T03:17:53;19.70;76.70
9544;DHT22;30418;51.45933468;7.33152330;2023-08-01T03:20:22;19.70;76.70
9544;DHT22;30418;51.45933468;7.33152330;2023-08-01T03:22:52;19.70;77.50
9544;DHT22;30418;51.45933468;7.33152330;2023-08-01T03:25:20;19.70;76.80
9544;DHT22;30418;51.45933468;7.33152330;2023-08-01T03:27:49;19.70;76.80
9544;DHT22;30418;51.45933468;7.33152330;2023-08-01T03:30:17;19.70;76.80
9544;DHT22;30418;51.45933468;7.33152330;2023-08-01T03:32:46;19.70;76.90
9544;DHT22;30418;51.45933468;7.33152330;2023-08-01T03:35:14;19.70;76.90
9544;DHT22;30418;51.45933468;7.33152330;2023-08-01T03:37:43;19.70;77.00
9544;DHT22;30418;51.45933468;7.33152330;2023-08-01T03:40:13;19.70;77.00
9544;DHT22;30418;51.45933468;7.33152330;2023-08-01T03:42:41;19.70;77.00
9544;DHT22;30418;51.45933468;7.33152330;2023-08-01T03:45:11;19.70;77.00
9544;DHT22;30418;51.45933468;7.33152330;2023-08-01T03:47:40;19.70;77.00
9544;DHT22;30418;51.45933468;7.33152330;2023-08-01T03:50:09;19.80;77.10
9544;DHT22;30418;51.45933468;7.33152330;2023-08-01T03:52:38;19.80;77.20
9544;DHT22;30418;51.45933468;7.33152330;2023-08-01T03:55:08;19.80;77.10
9544;DHT22;30418;51.45933468;7.33152330;2023-08-01T03:57:38;19.70;76.90
9544;DHT22;30418;51.45933468;7.33152330;2023-08-01T04:00:07;19.80;77.00
9544;DHT22;30418;51.45933468;7.33152330;2023-08-01T04:02:40;19.80;77.00
9544;DHT22;30418;51.45933468;7.33152330;2023-08-01T04:05:13;19.70;76.90
9544;DHT22;30418;51.45933468;7.33152330;2023-08-01T04:07:42;19.80;77.00
9544;DHT22;30418;51.45933468;7.33152330;2023-08-01T04:10:10;19.70;76.90
9544;DHT22;30418;51.45933468;7.33152330;2023-08-01T04:12:41;19.70;76.80
9544;DHT22;30418;51.45933468;7.33152330;2023-08-01T04:15:10;19.70;76.90
9544;DHT22;30418;51.45933468;7.33152330;2023-08-01T04:17:38;19.70;76.80
9544;DHT22;30418;51.45933468;7.33152330;2023-08-01T04:20:07;19.70;76.80
9544;DHT22;30418;51.45933468;7.33152330;2023-08-01T04:22:36;19.70;76.70
9544;DHT22;30418;51.45933468;7.33152330;2023-08-01T04:25:05;19.70;76.50
9544;DHT22;30418;51.45933468;7.33152330;2023-08-01T04:27:34;19.70;76.50
9544;DHT22;30418;51.45933468;7.33152330;2023-08-01T04:30:06;19.70;76.40
9544;DHT22;30418;51.45933468;7.33152330;2023-08-01T04:32:35;19.60;76.40
9544;DHT22;30418;51.45933468;7.33152330;2023-08-01T04:35:04;19.60;76.30
9544;DHT22;30418;51.45933468;7.33152330;2023-08-01T04:37:33;19.60;76.40
9544;DHT22;30418;51.45933468;7.33152330;2023-08-01T04:40:02;19.60;76.30
9544;DHT22;30418;51.45933468;7.33152330;2023-08-01T04:42:30;19.60;76.30
9544;DHT22;30418;51.45933468;7.33152330;2023-08-01T04:44:59;19.50;76.20
9544;DHT22;30418;51.45933468;7.33152330;2023-08-01T04:47:29;19.50;76.20
9544;DHT22;30418;51.45933468;7.33152330;2023-08-01T04:49:57;19.50;76.20
9544;DHT22;30418;51.45933468;7.33152330;2023-08-01T04:52:26;19.50;76.30
9544;DHT22;30418;51.45933468;7.33152330;2023-08-01T04:54:54;19.50;76.30
9544;DHT22;30418;51.45933468;7.33152330;2023-08-01T04:57:23;19.50;77.10
9544;DHT22;30418;51.45933468;7.33152330;2023-08-01T04:59:51;19.50;76.30
9544;DHT22;30418;51.45933468;7.33152330;2023-08-01T05:02:20;19.50;76.30
9544;DHT22;30418;51.45933468;7.33152330;2023-08-01T05:04:49;19.50;76.40
9544;DHT22;30418;51.45933468;7.33152330;2023-08-01T05:07:18;19.50;76.40
9544;DHT22;30418;51.45933468;7.33152330;2023-08-01T05:09:47;19.50;76.40
9544;DHT22;30418;51.45933468;7.33152330;2023-08-01T05:12:15;19.50;76.40
9544;DHT22;30418;51.45933468;7.33152330;2023-08-01T05:14:43;19.50;76.30
9544;DHT22;30418;51.45933468;7.33152330;2023-08-01T05:17:12;19.50;76.30
9544;DHT22;30418;51.45933468;7.33152330;2023-08-01T05:19:40;19.50;76.30
9544;DHT22;30418;51.45933468;7.33152330;2023-08-01T05:22:10;19.50;76.20
9544;DHT22;30418;51.45933468;7.33152330;2023-08-01T05:24:39;19.50;76.20
9544;DHT22;30418;51.45933468;7.33152330;2023-08-01T05:27:07;19.50;76.30
9544;DHT22;30418;51.45933468;7.33152330;2023-08-01T05:29:36;19.50;76.20
9544;DHT22;30418;51.45933468;7.33152330;2023-08-01T05:32:04;19.50;76.20
9544;DHT22;30418;51.45933468;7.33152330;2023-08-01T05:34:33;19.50;76.30
9544;DHT22;30418;51.45933468;7.33152330;2023-08-01T05:37:02;19.50;76.20
9544;DHT22;30418;51.45933468;7.33152330;2023-08-01T05:39:32;19.40;76.20
9544;DHT22;30418;51.45933468;7.33152330;2023-08-01T05:42:01;19.40;76.10
9544;DHT22;30418;51.45933468;7.33152330;2023-08-01T05:44:29;19.40;76.20
9544;DHT22;30418;51.45933468;7.33152330;2023-08-01T05:46:58;19.40;76.20
9544;DHT22;30418;51.45933468;7.33152330;2023-08-01T05:49:27;19.40;76.20
9544;DHT22;30418;51.45933468;7.33152330;2023-08-01T05:51:57;19.40;76.10
9544;DHT22;30418;51.45933468;7.33152330;2023-08-01T05:54:25;19.40;76.20
9544;DHT22;30418;51.45933468;7.33152330;2023-08-01T05:56:55;19.40;76.30
9544;DHT22;30418;51.45933468;7.33152330;2023-08-01T05:59:24;19.40;76.50
9544;DHT22;30418;51.45933468;7.33152330;2023-08-01T06:01:53;19.40;76.40
9544;DHT22;30418;51.45933468;7.33152330;2023-08-01T06:04:22;19.40;76.40
9544;DHT22;30418;51.45933468;7.33152330;2023-08-01T06:06:50;19.40;76.40
9544;DHT22;30418;51.45933468;7.33152330;2023-08-01T06:09:19;19.40;76.30
9544;DHT22;30418;51.45933468;7.33152330;2023-08-01T06:11:50;19.40;76.30
9544;DHT22;30418;51.45933468;7.33152330;2023-08-01T06:14:20;19.40;76.40
9544;DHT22;30418;51.45933468;7.33152330;2023-08-01T06:16:48;19.40;76.50
9544;DHT22;30418;51.45933468;7.33152330;2023-08-01T06:19:17;19.40;76.60
9544;DHT22;30418;51.45933468;7.33152330;2023-08-01T06:21:45;19.40;76.70
9544;DHT22;30418;51.45933468;7.33152330;2023-08-01T06:24:15;19.40;76.70
9544;DHT22;30418;51.45933468;7.33152330;2023-08-01T06:26:43;19.50;76.90
9544;DHT22;30418;51.45933468;7.33152330;2023-08-01T06:29:11;19.50;76.80
9544;DHT22;30418;51.45933468;7.33152330;2023-08-01T06:31:41;19.50;76.80
9544;DHT22;30418;51.45933468;7.33152330;2023-08-01T06:34:10;19.50;76.80
9544;DHT22;30418;51.45933468;7.33152330;2023-08-01T06:36:39;19.40;76.70
9544;DHT22;30418;51.45933468;7.33152330;2023-08-01T06:39:07;19.50;76.80
9544;DHT22;30418;51.45933468;7.33152330;2023-08-01T06:41:36;19.50;76.70
9544;DHT22;30418;51.45933468;7.33152330;2023-08-01T06:44:05;19.50;76.80
9544;DHT22;30418;51.45933468;7.33152330;2023-08-01T06:46:33;19.50;76.80
9544;DHT22;30418;51.45933468;7.33152330;2023-08-01T06:49:03;19.50;76.80
9544;DHT22;30418;51.45933468;7.33152330;2023-08-01T06:51:32;19.50;76.80
9544;DHT22;30418;51.45933468;7.33152330;2023-08-01T06:54:00;19.50;76.80
9544;DHT22;30418;51.45933468;7.33152330;2023-08-01T06:56:29;19.60;77.00
9544;DHT22;30418;51.45933468;7.33152330;2023-08-01T06:58:57;19.60;77.10
9544;DHT22;30418;51.45933468;7.33152330;2023-08-01T07:01:26;19.60;77.10
9544;DHT22;30418;51.45933468;7.33152330;2023-08-01T07:03:55;19.60;76.90
9544;DHT22;30418;51.45933468;7.33152330;2023-08-01T07:06:25;19.60;76.80
9544;DHT22;30418;51.45933468;7.33152330;2023-08-01T07:08:54;19.60;76.70
9544;DHT22;30418;51.45933468;7.33152330;2023-08-01T07:11:24;19.60;76.60
9544;DHT22;30418;51.45933468;7.33152330;2023-08-01T07:13:53;19.60;76.70
9544;DHT22;30418;51.45933468;7.33152330;2023-08-01T07:16:21;19.60;77.60
9544;DHT22;30418;51.45933468;7.33152330;2023-08-01T07:18:50;19.60;76.90
9544;DHT22;30418;51.45933468;7.33152330;2023-08-01T07:21:19;19.60;77.00
9544;DHT22;30418;51.45933468;7.33152330;2023-08-01T07:23:49;19.60;77.00
9544;DHT22;30418;51.45933468;7.33152330;2023-08-01T07:26:17;19.60;77.00
9544;DHT22;30418;51.45933468;7.33152330;2023-08-01T07:28:46;19.60;77.00
9544;DHT22;30418;51.45933468;7.33152330;2023-08-01T07:31:14;19.70;77.10
9544;DHT22;30418;51.45933468;7.33152330;2023-08-01T07:33:43;19.70;77.10
9544;DHT22;30418;51.45933468;7.33152330;2023-08-01T07:36:11;19.70;77.10
9544;DHT22;30418;51.45933468;7.33152330;2023-08-01T07:38:40;19.70;77.30
9544;DHT22;30418;51.45933468;7.33152330;2023-08-01T07:41:10;19.70;77.40
9544;DHT22;30418;51.45933468;7.33152330;2023-08-01T07:43:38;19.70;77.50
9544;DHT22;30418;51.45933468;7.33152330;2023-08-01T07:46:07;19.70;77.40
9544;DHT22;30418;51.45933468;7.33152330;2023-08-01T07:48:37;19.70;77.40
9544;DHT22;30418;51.45933468;7.33152330;2023-08-01T07:51:06;19.80;77.50
9544;DHT22;30418;51.45933468;7.33152330;2023-08-01T07:53:35;19.70;77.30
9544;DHT22;30418;51.45933468;7.33152330;2023-08-01T07:56:04;19.80;77.30
9544;DHT22;30418;51.45933468;7.33152330;2023-08-01T07:58:35;19.80;77.30
9544;DHT22;30418;51.45933468;7.33152330;2023-08-01T08:01:04;19.80;77.40
9544;DHT22;30418;51.45933468;7.33152330;2023-08-01T08:03:33;19.90;77.80
9544;DHT22;30418;51.45933468;7.33152330;2023-08-01T08:06:01;19.90;78.00
9544;DHT22;30418;51.45933468;7.33152330;2023-08-01T08:08:30;20.00;78.20
9544;DHT22;30418;51.45933468;7.33152330;2023-08-01T08:11:00;20.00;78.00
9544;DHT22;30418;51.45933468;7.33152330;2023-08-01T08:13:29;20.00;77.80
9544;DHT22;30418;51.45933468;7.33152330;2023-08-01T08:15:59;20.10;77.60
9544;DHT22;30418;51.45933468;7.33152330;2023-08-01T08:18:28;20.10;77.30
9544;DHT22;30418;51.45933468;7.33152330;2023-08-01T08:20:56;20.10;77.20
9544;DHT22;30418;51.45933468;7.33152330;2023-08-01T08:23:25;20.10;77.30
9544;DHT22;30418;51.45933468;7.33152330;2023-08-01T08:25:53;20.10;77.30
9544;DHT22;30418;51.45933468;7.33152330;2023-08-01T08:28:28;20.10;77.40
9544;DHT22;30418;51.45933468;7.33152330;2023-08-01T08:30:59;20.20;77.50
9544;DHT22;30418;51.45933468;7.33152330;2023-08-01T08:33:29;20.20;77.90
9544;DHT22;30418;51.45933468;7.33152330;2023-08-01T08:35:57;20.20;77.80
9544;DHT22;30418;51.45933468;7.33152330;2023-08-01T08:38:26;20.30;77.80
9544;DHT22;30418;51.45933468;7.33152330;2023-08-01T08:41:05;20.30;77.70
9544;DHT22;30418;51.45933468;7.33152330;2023-08-01T08:43:37;20.40;78.50
9544;DHT22;30418;51.45933468;7.33152330;2023-08-01T08:46:08;20.40;77.70
9544;DHT22;30418;51.45933468;7.33152330;2023-08-01T08:48:39;20.50;77.70
9544;DHT22;30418;51.45933468;7.33152330;2023-08-01T08:51:09;20.60;77.70
9544;DHT22;30418;51.45933468;7.33152330;2023-08-01T08:53:38;20.60;77.70
9544;DHT22;30418;51.45933468;7.33152330;2023-08-01T08:56:09;20.60;77.50
9544;DHT22;30418;51.45933468;7.33152330;2023-08-01T08:58:38;20.70;77.30
9544;DHT22;30418;51.45933468;7.33152330;2023-08-01T09:01:08;20.70;77.00
9544;DHT22;30418;51.45933468;7.33152330;2023-08-01T09:03:37;20.70;76.60
9544;DHT22;30418;51.45933468;7.33152330;2023-08-01T09:06:11;20.80;76.70
9544;DHT22;30418;51.45933468;7.33152330;2023-08-01T09:08:46;20.80;76.60
9544;DHT22;30418;51.45933468;7.33152330;2023-08-01T09:11:19;20.70;76.30
9544;DHT22;30418;51.45933468;7.33152330;2023-08-01T09:13:48;20.80;76.30
9544;DHT22;30418;51.45933468;7.33152330;2023-08-01T09:16:19;20.70;76.00
9544;DHT22;30418;51.45933468;7.33152330;2023-08-01T09:18:49;20.70;75.80
9544;DHT22;30418;51.45933468;7.33152330;2023-08-01T09:21:19;20.70;75.90
9544;DHT22;30418;51.45933468;7.33152330;2023-08-01T09:23:48;20.80;76.00
9544;DHT22;30418;51.45933468;7.33152330;2023-08-01T09:26:17;20.70;75.90
9544;DHT22;30418;51.45933468;7.33152330;2023-08-01T09:28:55;20.70;75.90
9544;DHT22;30418;51.45933468;7.33152330;2023-08-01T09:31:30;20.70;75.90
9544;DHT22;30418;51.45933468;7.33152330;2023-08-01T09:34:01;20.80;76.30
9544;DHT22;30418;51.45933468;7.33152330;2023-08-01T09:36:32;20.80;76.50
9544;DHT22;30418;51.45933468;7.33152330;2023-08-01T09:39:03;20.90;76.50
9544;DHT22;30418;51.45933468;7.33152330;2023-08-01T09:41:33;20.90;76.20
9544;DHT22;30418;51.45933468;7.33152330;2023-08-01T09:44:02;21.00;76.30
9544;DHT22;30418;51.45933468;7.33152330;2023-08-01T09:46:32;21.10;76.10
9544;DHT22;30418;51.45933468;7.33152330;2023-08-01T09:49:07;21.10;76.10
9544;DHT22;30418;51.45933468;7.33152330;2023-08-01T09:51:46;21.20;75.90
9544;DHT22;30418;51.45933468;7.33152330;2023-08-01T09:54:16;21.30;75.90
9544;DHT22;30418;51.45933468;7.33152330;2023-08-01T09:56:46;21.40;75.90
9544;DHT22;30418;51.45933468;7.33152330;2023-08-01T09:59:19;21.40;75.80
9544;DHT22;30418;51.45933468;7.33152330;2023-08-01T10:01:51;21.50;75.70
9544;DHT22;30418;51.45933468;7.33152330;2023-08-01T10:04:23;21.50;75.20
9544;DHT22;30418;51.45933468;7.33152330;2023-08-01T10:06:57;21.60;75.00
9544;DHT22;30418;51.45933468;7.33152330;2023-08-01T10:09:27;21.60;74.70
9544;DHT22;30418;51.45933468;7.33152330;2023-08-01T10:11:58;21.60;74.50
9544;DHT22;30418;51.45933468;7.33152330;2023-08-01T10:14:27;21.70;74.60
9544;DHT22;30418;51.45933468;7.33152330;2023-08-01T10:16:58;21.70;74.50
9544;DHT22;30418;51.45933468;7.33152330;2023-08-01T10:19:27;21.80;74.60
9544;DHT22;30418;51.45933468;7.33152330;2023-08-01T10:21:56;21.80;74.60
9544;DHT22;30418;51.45933468;7.33152330;2023-08-01T10:24:26;21.90;74.10
9544;DHT22;30418;51.45933468;7.33152330;2023-08-01T10:26:56;21.90;73.50
9544;DHT22;30418;51.45933468;7.33152330;2023-08-01T10:29:34;21.90;73.00
9544;DHT22;30418;51.45933468;7.33152330;2023-08-01T10:32:06;21.80;72.60
9544;DHT22;30418;51.45933468;7.33152330;2023-08-01T10:34:36;21.80;72.40
9544;DHT22;30418;51.45933468;7.33152330;2023-08-01T10:37:04;21.70;72.30
9544;DHT22;30418;51.45933468;7.33152330;2023-08-01T10:39:32;21.60;72.20
9544;DHT22;30418;51.45933468;7.33152330;2023-08-01T10:42:03;21.50;72.40
9544;DHT22;30418;51.45933468;7.33152330;2023-08-01T10:44:32;21.40;72.60
9544;DHT22;30418;51.45933468;7.33152330;2023-08-01T10:47:05;21.30;72.90
9544;DHT22;30418;51.45933468;7.33152330;2023-08-01T10:49:36;21.20;73.40
9544;DHT22;30418;51.45933468;7.33152330;2023-08-01T10:52:16;21.10;74.70
9544;DHT22;30418;51.45933468;7.33152330;2023-08-01T10:54:45;21.10;74.70
9544;DHT22;30418;51.45933468;7.33152330;2023-08-01T10:57:17;21.10;75.40
9544;DHT22;30418;51.45933468;7.33152330;2023-08-01T10:59:46;21.10;75.80
9544;DHT22;30418;51.45933468;7.33152330;2023-08-01T11:02:22;21.20;76.20
9544;DHT22;30418;51.45933468;7.33152330;2023-08-01T11:04:58;21.20;76.70
9544;DHT22;30418;51.45933468;7.33152330;2023-08-01T11:07:27;21.30;77.00
9544;DHT22;30418;51.45933468;7.33152330;2023-08-01T11:10:07;21.40;76.80
9544;DHT22;30418;51.45933468;7.33152330;2023-08-01T11:12:38;21.50;76.90
9544;DHT22;30418;51.45933468;7.33152330;2023-08-01T11:15:10;21.50;76.40
9544;DHT22;30418;51.45933468;7.33152330;2023-08-01T11:17:41;21.60;75.60
9544;DHT22;30418;51.45933468;7.33152330;2023-08-01T11:20:11;21.60;75.20
9544;DHT22;30418;51.45933468;7.33152330;2023-08-01T11:22:50;21.60;74.70
9544;DHT22;30418;51.45933468;7.33152330;2023-08-01T11:25:31;21.60;74.40
9544;DHT22;30418;51.45933468;7.33152330;2023-08-01T11:28:06;21.50;73.50
9544;DHT22;30418;51.45933468;7.33152330;2023-08-01T11:30:36;21.50;73.10
9544;DHT22;30418;51.45933468;7.33152330;2023-08-01T11:33:15;21.40;73.40
9544;DHT22;30418;51.45933468;7.33152330;2023-08-01T11:35:44;21.30;72.40
9544;DHT22;30418;51.45933468;7.33152330;2023-08-01T11:38:13;21.20;72.60
9544;DHT22;30418;51.45933468;7.33152330;2023-08-01T11:40:42;21.00;72.80
9544;DHT22;30418;51.45933468;7.33152330;2023-08-01T11:43:11;21.00;72.60
9544;DHT22;30418;51.45933468;7.33152330;2023-08-01T11:45:48;20.80;72.40
9544;DHT22;30418;51.45933468;7.33152330;2023-08-01T11:48:19;20.80;72.40
9544;DHT22;30418;51.45933468;7.33152330;2023-08-01T11:50:47;20.70;72.70
9544;DHT22;30418;51.45933468;7.33152330;2023-08-01T11:53:19;20.60;72.80
9544;DHT22;30418;51.45933468;7.33152330;2023-08-01T11:55:49;20.50;73.00
9544;DHT22;30418;51.45933468;7.33152330;2023-08-01T11:58:28;20.50;73.20
9544;DHT22;30418;51.45933468;7.33152330;2023-08-01T12:01:04;20.50;73.60
9544;DHT22;30418;51.45933468;7.33152330;2023-08-01T12:03:44;20.40;73.90
9544;DHT22;30418;51.45933468;7.33152330;2023-08-01T12:06:14;20.40;74.10
9544;DHT22;30418;51.45933468;7.33152330;2023-08-01T12:08:45;20.50;74.50
9544;DHT22;30418;51.45933468;7.33152330;2023-08-01T12:11:18;20.50;75.00
9544;DHT22;30418;51.45933468;7.33152330;2023-08-01T12:13:48;20.50;75.30
9544;DHT22;30418;51.45933468;7.33152330;2023-08-01T12:16:28;20.60;75.70
9544;DHT22;30418;51.45933468;7.33152330;2023-08-01T12:18:59;20.60;76.00
9544;DHT22;30418;51.45933468;7.33152330;2023-08-01T12:21:28;20.70;76.50
9544;DHT22;30418;51.45933468;7.33152330;2023-08-01T12:23:56;20.80;76.90
9544;DHT22;30418;51.45933468;7.33152330;2023-08-01T12:26:25;20.90;76.80
9544;DHT22;30418;51.45933468;7.33152330;2023-08-01T12:28:54;21.00;76.80
9544;DHT22;30418;51.45933468;7.33152330;2023-08-01T12:31:23;21.10;76.40
9544;DHT22;30418;51.45933468;7.33152330;2023-08-01T12:33:51;21.10;75.80
9544;DHT22;30418;51.45933468;7.33152330;2023-08-01T12:36:22;21.20;75.60
9544;DHT22;30418;51.45933468;7.33152330;2023-08-01T12:38:50;21.20;75.40
9544;DHT22;30418;51.45933468;7.33152330;2023-08-01T12:41:19;21.20;75.20
9544;DHT22;30418;51.45933468;7.33152330;2023-08-01T12:43:47;21.20;75.20
9544;DHT22;30418;51.45933468;7.33152330;2023-08-01T12:46:16;21.30;75.10
9544;DHT22;30418;51.45933468;7.33152330;2023-08-01T12:48:45;21.20;75.10
9544;DHT22;30418;51.45933468;7.33152330;2023-08-01T12:51:14;21.30;75.10
9544;DHT22;30418;51.45933468;7.33152330;2023-08-01T12:53:44;21.30;75.00
9544;DHT22;30418;51.45933468;7.33152330;2023-08-01T12:56:13;21.30;74.90
9544;DHT22;30418;51.45933468;7.33152330;2023-08-01T12:58:42;21.30;75.00
9544;DHT22;30418;51.45933468;7.33152330;2023-08-01T13:01:10;21.30;75.10
9544;DHT22;30418;51.45933468;7.33152330;2023-08-01T13:03:39;21.30;75.20
9544;DHT22;30418;51.45933468;7.33152330;2023-08-01T13:06:10;21.30;75.00
9544;DHT22;30418;51.45933468;7.33152330;2023-08-01T13:08:40;21.40;75.00
9544;DHT22;30418;51.45933468;7.33152330;2023-08-01T13:11:14;21.40;75.00
9544;DHT22;30418;51.45933468;7.33152330;2023-08-01T13:13:43;21.40;74.90
9544;DHT22;30418;51.45933468;7.33152330;2023-08-01T13:16:12;21.40;75.00
9544;DHT22;30418;51.45933468;7.33152330;2023-08-01T13:18:41;21.40;75.20
9544;DHT22;30418;51.45933468;7.33152330;2023-08-01T13:21:13;21.40;75.10
9544;DHT22;30418;51.45933468;7.33152330;2023-08-01T13:23:41;21.40;75.10
9544;DHT22;30418;51.45933468;7.33152330;2023-08-01T13:26:10;21.50;75.20
9544;DHT22;30418;51.45933468;7.33152330;2023-08-01T13:28:40;21.50;75.40
9544;DHT22;30418;51.45933468;7.33152330;2023-08-01T13:31:09;21.60;75.60
9544;DHT22;30418;51.45933468;7.33152330;2023-08-01T13:33:38;21.60;75.90
9544;DHT22;30418;51.45933468;7.33152330;2023-08-01T13:36:06;21.70;75.60
9544;DHT22;30418;51.45933468;7.33152330;2023-08-01T13:38:35;21.80;75.80
9544;DHT22;30418;51.45933468;7.33152330;2023-08-01T13:41:03;21.80;75.50
9544;DHT22;30418;51.45933468;7.33152330;2023-08-01T13:43:31;21.90;75.10
9544;DHT22;30418;51.45933468;7.33152330;2023-08-01T13:46:11;22.00;74.80
9544;DHT22;30418;51.45933468;7.33152330;2023-08-01T13:48:55;22.00;74.30